Brewington Woods, Indiana
Current Conditions -  °F | °C
As of 12:53 PM on Thursday 18 Dec 2014 (Local Time) from KMIE Reporting Station
Overcast Overcast  
Wind Chill: 19°   Ceiling: 2000
Heat Index: 27°   Visibility: 10mi
Dew Point: 20°   Wind: 7mph
Humidity: 75%   Direction: 310°NW
Pressure: 30.24"   Gusts: NA
Location:  40.2341°N, 85.4639°W
Report Text: KMIE 181753Z 31006KT 10SM OVC020 M03/M07 A3024 RMK AO2 SLP247 T10281067 11028 21033 58014
Loading
Personal Weather Stations






























Interactive Weather Map New forecast layout! Learn more

10-Day Weather Forecast

Advertisements
Track Severe Weather on mobile